Time;durP1;ratioP1;P1;durP2;ratioP2;P2;SDS_P1;SDS_P2;PMS_P1;PMS_P2;Temp;Humidity;BMP_temperature;BMP_pressure;BME280_temperature;BME280_humidity;BME280_pressure;Samples;Min_cycle;Max_cycle;Signal;HPM_P1;HPM_P2
2022/01/30 00:01:35;;;;;;;18.80;17.90;;;10.70;83.20;;;;;;4952713;28;20039;-90
2022/01/30 00:04:02;;;;;;;19.70;18.60;;;10.70;83.20;;;;;;4955232;29;20030;-91
2022/01/30 00:06:28;;;;;;;18.33;17.48;;;10.70;83.10;;;;;;4953728;29;20046;-90
2022/01/30 00:08:54;;;;;;;18.95;18.05;;;10.70;83.20;;;;;;4955858;29;20462;-91
2022/01/30 00:11:24;;;;;;;19.83;18.83;;;10.70;83.20;;;;;;4945416;29;20063;-90
2022/01/30 00:13:50;;;;;;;18.70;17.58;;;10.70;83.20;;;;;;4945327;29;20044;-90
2022/01/30 00:16:19;;;;;;;18.40;17.20;;;10.70;83.20;;;;;;4951226;28;20035;-90
2022/01/30 00:21:32;;;;;;;18.45;17.55;;;10.70;83.20;;;;;;4972210;28;20039;-90
2022/01/30 00:24:06;;;;;;;18.35;17.55;;;10.70;83.10;;;;;;4942219;29;20051;-90
2022/01/30 00:26:35;;;;;;;19.08;18.17;;;10.70;83.00;;;;;;4954618;29;20039;-90
2022/01/30 00:29:02;;;;;;;18.90;18.00;;;10.70;83.10;;;;;;4952794;29;20482;-90
2022/01/30 00:31:28;;;;;;;18.08;17.27;;;10.70;83.10;;;;;;4954889;28;20058;-90
2022/01/30 00:33:54;;;;;;;19.10;18.20;;;10.70;83.20;;;;;;4953746;29;20027;-90
2022/01/30 00:36:20;;;;;;;18.90;17.92;;;10.70;83.20;;;;;;4952362;29;20027;-91
2022/01/30 00:38:46;;;;;;;19.20;18.30;;;10.70;83.20;;;;;;4937902;29;20364;-90
2022/01/30 00:41:13;;;;;;;19.15;18.25;;;10.70;83.20;;;;;;4955104;29;20046;-89
2022/01/30 00:43:39;;;;;;;19.40;18.50;;;10.70;83.20;;;;;;4951831;28;20040;-90
2022/01/30 00:46:05;;;;;;;17.73;16.92;;;10.70;83.20;;;;;;4953057;28;20050;-91
2022/01/30 00:48:31;;;;;;;18.42;17.63;;;10.70;83.20;;;;;;4969593;28;20035;-88
2022/01/30 00:50:57;;;;;;;19.38;18.45;;;10.70;83.20;;;;;;4953772;29;20055;-90
2022/01/30 00:53:23;;;;;;;19.23;18.23;;;10.70;83.20;;;;;;4955064;29;20039;-90
2022/01/30 00:55:49;;;;;;;18.95;18.05;;;10.70;83.20;;;;;;4951204;28;20046;-90
2022/01/30 00:58:15;;;;;;;18.77;17.88;;;10.70;83.20;;;;;;4953109;29;20051;-91
2022/01/30 01:00:41;;;;;;;18.70;17.80;;;10.70;83.20;;;;;;4952347;28;20039;-90
2022/01/30 01:03:07;;;;;;;20.52;19.25;;;10.70;84.10;;;;;;4953930;29;20513;-90
2022/01/30 01:05:35;;;;;;;18.63;17.73;;;10.70;83.30;;;;;;4969493;28;20043;-91
2022/01/30 01:08:09;;;;;;;18.15;17.35;;;10.70;83.30;;;;;;4952835;29;20047;-90
2022/01/30 01:10:45;;;;;;;18.92;17.95;;;10.70;83.30;;;;;;4945213;28;20066;-90
2022/01/30 01:23:56;;;;;;;19.15;18.08;;;10.60;83.30;;;;;;4957917;28;20031;-90
2022/01/30 01:26:23;;;;;;;18.35;17.45;;;10.60;83.30;;;;;;4952500;29;20462;-90
2022/01/30 01:28:49;;;;;;;18.35;17.45;;;10.60;83.30;;;;;;4949720;29;20046;-90
2022/01/30 01:31:15;;;;;;;19.55;18.30;;;10.60;83.30;;;;;;4946038;28;20055;-90
2022/01/30 01:36:13;;;;;;;18.98;18.08;;;10.60;83.40;;;;;;4955096;28;20107;-90
2022/01/30 01:38:39;;;;;;;18.60;17.70;;;10.60;83.40;;;;;;4950347;29;20039;-90
2022/01/30 01:41:05;;;;;;;18.05;17.25;;;10.60;83.40;;;;;;4952511;29;20035;-90
2022/01/30 01:43:32;;;;;;;17.85;17.05;;;10.60;83.40;;;;;;4947718;29;20302;-90
2022/01/30 01:46:00;;;;;;;18.95;18.05;;;10.60;83.40;;;;;;4948871;28;20036;-90
2022/01/30 01:48:26;;;;;;;17.80;17.00;;;10.60;83.40;;;;;;4963865;28;20031;-90
2022/01/30 01:51:05;;;;;;;18.20;17.30;;;10.60;83.40;;;;;;4967036;28;20477;-90
2022/01/30 01:53:31;;;;;;;18.40;17.50;;;10.60;83.40;;;;;;4950735;28;20039;-89
2022/01/30 01:55:57;;;;;;;17.70;16.90;;;10.60;83.40;;;;;;4947752;29;20035;-90
2022/01/30 01:58:24;;;;;;;17.98;17.08;;;10.60;83.40;;;;;;4946166;29;20039;-90
2022/01/30 02:00:50;;;;;;;18.20;17.30;;;10.60;83.40;;;;;;4964066;28;20047;-90
2022/01/30 02:03:18;;;;;;;17.88;16.92;;;10.60;83.50;;;;;;4951999;29;20031;-90
2022/01/30 02:05:49;;;;;;;17.98;17.17;;;10.50;83.40;;;;;;4943844;29;20027;-90
2022/01/30 02:08:35;;;;;;;;;;;10.60;83.50;;;;;;4968389;28;20050;-90
2022/01/30 02:11:06;;;;;;;17.85;16.95;;;10.60;83.50;;;;;;4954991;28;19918;-90
2022/01/30 02:24:46;;;;;;;17.23;16.42;;;10.50;83.40;;;;;;4952667;28;20034;-89
2022/01/30 02:27:17;;;;;;;18.08;17.17;;;10.50;83.40;;;;;;4931644;29;20043;-90
2022/01/30 02:29:44;;;;;;;19.05;17.98;;;10.50;83.40;;;;;;4950467;29;20050;-90
2022/01/30 02:32:10;;;;;;;18.35;17.35;;;10.50;83.40;;;;;;4950052;28;20036;-90
2022/01/30 02:34:36;;;;;;;19.40;18.38;;;10.50;83.50;;;;;;4952223;29;20039;-90
2022/01/30 02:37:02;;;;;;;18.70;17.80;;;10.50;83.50;;;;;;4951620;29;20399;-90
2022/01/30 02:39:29;;;;;;;18.95;18.05;;;10.50;83.50;;;;;;4948306;29;20120;-91
2022/01/30 02:41:55;;;;;;;17.52;16.73;;;10.50;83.50;;;;;;4948057;29;20035;-90
2022/01/30 02:44:26;;;;;;;18.05;17.25;;;10.40;83.50;;;;;;4950815;29;20028;-90
2022/01/30 02:46:56;;;;;;;18.88;17.95;;;10.40;83.50;;;;;;4952125;28;20038;-90
2022/01/30 02:51:57;;;;;;;17.92;17.10;;;10.40;83.50;;;;;;4951632;29;20039;-90
2022/01/30 02:54:23;;;;;;;18.05;17.25;;;10.40;83.50;;;;;;4948949;28;20051;-90
2022/01/30 02:56:49;;;;;;;17.27;16.48;;;10.40;83.60;;;;;;4945724;29;20035;-90
2022/01/30 02:59:16;;;;;;;17.67;16.88;;;10.40;83.70;;;;;;4943619;29;20402;-90
2022/01/30 03:01:42;;;;;;;17.73;16.88;;;10.40;83.70;;;;;;4950210;28;20402;-90
2022/01/30 03:04:08;;;;;;;17.73;16.92;;;10.40;83.60;;;;;;4943725;29;20393;-90
2022/01/30 03:06:35;;;;;;;17.55;16.75;;;10.40;83.60;;;;;;4946861;29;20489;-90
2022/01/30 03:09:02;;;;;;;18.60;17.60;;;10.40;83.70;;;;;;4938815;29;20047;-90
2022/01/30 03:11:28;;;;;;;18.33;17.42;;;10.40;83.70;;;;;;4949535;29;20501;-90
2022/01/30 03:13:54;;;;;;;19.15;18.17;;;10.40;83.70;;;;;;4946003;29;20046;-91
2022/01/30 03:16:23;;;;;;;18.95;17.75;;;10.40;83.70;;;;;;4947011;28;20490;-91
2022/01/30 03:18:50;;;;;;;18.40;17.50;;;10.40;83.70;;;;;;4948041;28;20051;-90
2022/01/30 03:21:16;;;;;;;19.77;18.77;;;10.40;83.70;;;;;;4951239;28;20070;-91
2022/01/30 03:23:42;;;;;;;18.17;17.33;;;10.30;83.60;;;;;;4950670;29;20586;-91
2022/01/30 03:26:09;;;;;;;18.70;17.48;;;10.40;83.70;;;;;;4952223;29;20035;-91
2022/01/30 03:28:35;;;;;;;18.08;17.17;;;10.40;83.70;;;;;;4951788;29;20474;-90
2022/01/30 03:31:05;;;;;;;18.20;17.35;;;10.40;83.70;;;;;;4949993;28;20061;-90
2022/01/30 03:33:32;;;;;;;18.10;17.27;;;10.40;83.70;;;;;;4947725;29;20051;-90
2022/01/30 03:35:58;;;;;;;18.42;17.52;;;10.40;83.60;;;;;;4949211;29;20028;-91
2022/01/30 03:38:25;;;;;;;18.48;17.58;;;10.40;83.60;;;;;;4954691;29;20039;-90
2022/01/30 03:40:51;;;;;;;18.17;17.27;;;10.40;83.60;;;;;;4953142;29;20043;-91
2022/01/30 03:43:18;;;;;;;18.40;17.50;;;10.40;83.60;;;;;;4955386;28;20422;-90
2022/01/30 03:45:44;;;;;;;18.60;17.70;;;10.40;83.60;;;;;;4952424;28;20043;-90
2022/01/30 03:48:12;;;;;;;17.33;16.52;;;10.40;83.70;;;;;;4969943;28;20031;-91
2022/01/30 03:50:38;;;;;;;17.80;17.00;;;10.40;83.70;;;;;;4955381;28;20525;-91
2022/01/30 03:53:04;;;;;;;18.48;17.58;;;10.40;83.70;;;;;;4953185;29;20032;-90
2022/01/30 03:55:30;;;;;;;18.80;17.80;;;10.40;83.70;;;;;;4952175;29;20078;-91
2022/01/30 03:57:57;;;;;;;17.40;16.60;;;10.40;84.40;;;;;;4937109;29;20039;-90
2022/01/30 04:00:23;;;;;;;18.73;17.83;;;10.40;83.70;;;;;;4954385;28;20463;-90
2022/01/30 04:02:49;;;;;;;18.00;17.00;;;10.40;83.70;;;;;;4954588;29;20047;-90
2022/01/30 04:05:16;;;;;;;18.85;17.95;;;10.40;83.70;;;;;;4953810;29;20035;-90
2022/01/30 04:07:42;;;;;;;17.52;16.73;;;10.40;83.70;;;;;;4954327;29;20497;-90
2022/01/30 04:10:09;;;;;;;18.17;17.27;;;10.40;83.70;;;;;;4953021;29;20043;-90
2022/01/30 04:12:35;;;;;;;18.83;17.92;;;10.40;83.80;;;;;;4954630;28;20042;-90
2022/01/30 04:15:01;;;;;;;19.42;18.00;;;10.40;83.70;;;;;;4945618;29;20398;-90
2022/01/30 04:17:27;;;;;;;19.10;18.00;;;10.40;83.90;;;;;;4955554;28;20043;-91
2022/01/30 04:19:54;;;;;;;18.40;17.58;;;10.40;83.90;;;;;;4954801;29;20028;-90
2022/01/30 04:22:20;;;;;;;20.10;18.73;;;10.40;83.90;;;;;;4951710;29;20035;-90
2022/01/30 04:24:46;;;;;;;17.55;16.75;;;10.40;83.90;;;;;;4952218;29;20039;-91
2022/01/30 04:27:12;;;;;;;18.55;17.65;;;10.40;83.90;;;;;;4968621;28;20529;-90
2022/01/30 04:29:38;;;;;;;18.83;17.88;;;10.30;83.80;;;;;;4967681;28;20477;-91
2022/01/30 04:32:05;;;;;;;18.10;17.20;;;10.30;83.80;;;;;;4953545;28;20414;-91
2022/01/30 04:34:31;;;;;;;18.33;17.42;;;10.30;83.90;;;;;;4953083;29;20398;-90
2022/01/30 04:39:40;;;;;;;18.13;17.23;;;10.30;83.90;;;;;;4966627;28;20035;-90
2022/01/30 04:52:07;;;;;;;17.77;16.88;;;10.30;83.80;;;;;;4952296;28;20047;-90
2022/01/30 04:56:45;;;;;;;18.08;17.17;;;10.30;83.80;;;;;;4953883;28;20030;-91
2022/01/30 05:03:46;;;;;;;17.58;16.77;;;10.30;83.90;;;;;;4945529;28;20035;-91
2022/01/30 05:06:07;;;;;;;18.60;17.70;;;10.30;84.00;;;;;;4939896;29;20050;-91
2022/01/30 05:08:34;;;;;;;19.60;18.65;;;10.30;84.00;;;;;;4928331;29;20043;-91
2022/01/30 05:11:04;;;;;;;19.13;18.23;;;10.20;84.00;;;;;;4946021;29;20050;-90
2022/01/30 05:13:32;;;;;;;19.08;18.15;;;10.20;83.90;;;;;;4958547;28;20039;-91
2022/01/30 05:15:59;;;;;;;18.63;17.73;;;10.20;84.00;;;;;;4944130;28;20061;-91
2022/01/30 05:18:26;;;;;;;18.80;17.90;;;10.20;84.00;;;;;;4943866;28;20031;-91
2022/01/30 05:20:52;;;;;;;19.67;18.67;;;10.20;84.00;;;;;;4962248;28;20039;-91
2022/01/30 05:23:18;;;;;;;19.38;18.35;;;10.30;84.00;;;;;;4969338;28;20042;-90
2022/01/30 05:25:48;;;;;;;18.38;17.50;;;10.30;84.00;;;;;;4951063;29;20027;-91
2022/01/30 05:28:15;;;;;;;19.10;18.10;;;10.30;84.00;;;;;;4952161;28;20044;-91
2022/01/30 05:30:42;;;;;;;18.60;17.70;;;10.30;84.00;;;;;;4945170;28;20050;-92
2022/01/30 05:33:08;;;;;;;19.75;18.23;;;10.30;84.00;;;;;;4941976;29;20019;-91
2022/01/30 05:35:34;;;;;;;18.60;17.75;;;10.30;83.90;;;;;;4942875;29;20039;-90
2022/01/30 05:38:00;;;;;;;18.92;18.02;;;10.30;83.90;;;;;;4946185;29;20394;-90
2022/01/30 05:40:27;;;;;;;18.27;17.48;;;10.30;83.90;;;;;;4962087;28;20402;-89
2022/01/30 05:42:53;;;;;;;19.63;18.42;;;10.30;84.00;;;;;;4948527;29;20039;-90
2022/01/30 05:45:42;;;;;;;18.88;17.98;;;10.30;83.90;;;;;;4950249;28;20038;-90
2022/01/30 05:48:15;;;;;;;19.15;18.25;;;10.30;83.90;;;;;;4936666;29;20042;-90
2022/01/30 05:50:42;;;;;;;18.75;17.85;;;10.30;83.80;;;;;;4950049;29;20039;-91
2022/01/30 05:53:08;;;;;;;18.55;17.65;;;10.30;83.90;;;;;;4948655;29;20043;-91
2022/01/30 05:55:34;;;;;;;18.98;18.08;;;10.30;83.90;;;;;;4963476;28;20038;-90
2022/01/30 05:58:00;;;;;;;18.58;17.70;;;10.30;84.00;;;;;;4952050;29;20046;-90
2022/01/30 06:00:27;;;;;;;19.30;18.40;;;10.30;83.90;;;;;;4949717;28;20046;-90
2022/01/30 06:02:53;;;;;;;19.10;18.20;;;10.30;84.70;;;;;;4944371;29;20390;-90
2022/01/30 06:05:22;;;;;;;19.17;18.17;;;10.30;84.00;;;;;;4942311;29;20044;-91
2022/01/30 06:07:52;;;;;;;18.80;17.90;;;10.30;84.00;;;;;;4950299;29;20035;-92
2022/01/30 06:10:19;;;;;;;19.40;18.23;;;10.30;84.00;;;;;;4946176;28;20056;-91
2022/01/30 06:12:45;;;;;;;19.60;18.38;;;10.30;84.00;;;;;;4949450;29;20039;-92
2022/01/30 06:15:13;;;;;;;19.63;18.73;;;10.30;84.00;;;;;;4947389;28;20023;-91
2022/01/30 06:17:40;;;;;;;18.50;17.60;;;10.30;84.00;;;;;;4947381;28;20092;-92
2022/01/30 06:20:07;;;;;;;18.98;18.08;;;10.30;84.00;;;;;;4949163;29;20054;-92
2022/01/30 06:22:33;;;;;;;18.85;17.92;;;10.30;84.00;;;;;;4943831;29;20035;-91
2022/01/30 06:24:59;;;;;;;18.55;17.65;;;10.30;84.00;;;;;;4939768;29;20032;-91
2022/01/30 06:27:25;;;;;;;18.38;17.58;;;10.30;84.10;;;;;;4948464;29;20035;-91
2022/01/30 06:29:51;;;;;;;19.42;18.52;;;10.30;84.00;;;;;;4938230;29;20027;-92
2022/01/30 06:32:17;;;;;;;19.38;18.48;;;10.30;84.80;;;;;;4944539;28;20055;-92
2022/01/30 06:34:44;;;;;;;18.67;17.77;;;10.30;84.10;;;;;;4950995;28;20497;-92
2022/01/30 06:37:10;;;;;;;17.92;17.13;;;10.30;84.10;;;;;;4946753;29;20031;-92
2022/01/30 06:39:36;;;;;;;17.88;17.08;;;10.30;84.10;;;;;;4951466;29;20386;-91
2022/01/30 06:42:02;;;;;;;18.65;17.75;;;10.30;84.00;;;;;;4951062;29;20521;-91
2022/01/30 06:44:28;;;;;;;17.60;16.80;;;10.30;84.10;;;;;;4959677;28;20040;-91
2022/01/30 06:46:54;;;;;;;18.42;17.50;;;10.30;84.10;;;;;;4950543;28;20401;-91
2022/01/30 06:49:20;;;;;;;18.17;17.27;;;10.30;84.10;;;;;;4945085;29;20043;-91
2022/01/30 06:51:46;;;;;;;18.35;17.45;;;10.30;84.10;;;;;;4948051;28;20402;-88
2022/01/30 06:54:12;;;;;;;19.02;18.13;;;10.30;84.10;;;;;;4952673;29;20394;-90
2022/01/30 06:56:39;;;;;;;19.65;18.30;;;10.30;84.10;;;;;;4948394;29;20036;-88
2022/01/30 06:59:05;;;;;;;18.65;17.75;;;10.30;84.10;;;;;;4950049;28;20043;-89
2022/01/30 07:01:31;;;;;;;19.02;18.13;;;10.30;84.10;;;;;;4953856;28;20532;-87
2022/01/30 07:03:57;;;;;;;18.92;17.98;;;10.30;84.10;;;;;;4952312;29;20027;-88
2022/01/30 07:06:23;;;;;;;18.33;17.42;;;10.30;84.20;;;;;;4961293;28;20505;-87
2022/01/30 07:08:49;;;;;;;17.92;17.13;;;10.30;84.20;;;;;;4954676;29;20035;-86
2022/01/30 07:11:15;;;;;;;18.05;17.25;;;10.30;84.20;;;;;;4956562;29;20047;-86
2022/01/30 07:13:42;;;;;;;17.13;16.33;;;10.30;84.30;;;;;;4954549;29;20050;-87
2022/01/30 07:16:08;;;;;;;17.70;16.90;;;10.30;84.20;;;;;;4955524;28;20035;-88
2022/01/30 07:18:34;;;;;;;18.05;17.25;;;10.30;84.30;;;;;;4974782;28;20023;-89
2022/01/30 07:21:03;;;;;;;17.98;17.10;;;10.30;84.30;;;;;;4954558;29;20454;-90
2022/01/30 07:23:30;;;;;;;17.77;16.98;;;10.30;84.20;;;;;;4953856;28;20059;-90
2022/01/30 07:25:56;;;;;;;17.65;16.85;;;10.30;84.20;;;;;;4955053;29;20050;-90
2022/01/30 07:28:23;;;;;;;18.38;17.50;;;10.30;84.20;;;;;;4953770;29;20046;-90
2022/01/30 07:30:49;;;;;;;18.85;17.80;;;10.30;84.20;;;;;;4952680;28;20042;-89
2022/01/30 07:33:15;;;;;;;18.90;18.00;;;10.30;84.20;;;;;;4954043;29;20039;-88
2022/01/30 07:35:42;;;;;;;18.08;17.17;;;10.30;84.30;;;;;;4955768;29;20035;-84
2022/01/30 07:38:08;;;;;;;18.23;17.42;;;10.40;84.40;;;;;;4966287;28;20035;-84
2022/01/30 07:40:34;;;;;;;17.77;16.98;;;10.40;84.40;;;;;;4953447;29;20043;-83
2022/01/30 07:43:00;;;;;;;19.27;18.27;;;10.50;84.20;;;;;;4936338;29;20042;-84
2022/01/30 07:45:26;;;;;;;17.52;16.73;;;10.60;84.20;;;;;;4952919;28;20027;-84
2022/01/30 07:47:52;;;;;;;18.90;18.00;;;10.70;84.10;;;;;;4952530;28;20023;-87
2022/01/30 07:50:19;;;;;;;18.80;17.90;;;10.80;84.00;;;;;;4956039;29;20051;-85
2022/01/30 07:52:45;;;;;;;18.80;17.90;;;10.80;83.90;;;;;;4953245;29;20043;-84
2022/01/30 07:55:11;;;;;;;19.85;18.95;;;10.90;83.90;;;;;;4952557;28;20416;-85
2022/01/30 07:57:37;;;;;;;19.40;18.50;;;10.90;83.80;;;;;;4953729;29;20035;-85
2022/01/30 08:00:04;;;;;;;21.00;19.70;;;11.00;83.80;;;;;;4952114;28;20023;-85
2022/01/30 08:02:30;;;;;;;20.15;19.25;;;11.10;83.80;;;;;;4937651;29;20035;-84
2022/01/30 08:04:56;;;;;;;19.85;18.95;;;11.10;83.80;;;;;;4955115;28;20047;-85
2022/01/30 08:07:23;;;;;;;19.67;18.77;;;11.10;83.80;;;;;;4952792;29;20035;-84
2022/01/30 08:09:49;;;;;;;19.30;18.40;;;11.20;83.80;;;;;;4951715;29;20031;-84
2022/01/30 08:12:16;;;;;;;19.60;18.70;;;11.20;83.90;;;;;;4953367;28;20509;-83
2022/01/30 08:14:42;;;;;;;19.63;18.73;;;11.20;84.60;;;;;;4953108;29;20038;-86
2022/01/30 08:17:09;;;;;;;19.55;18.65;;;11.20;83.90;;;;;;4969128;28;20035;-85
2022/01/30 08:19:35;;;;;;;18.08;17.27;;;11.20;83.80;;;;;;4955688;28;20036;-87
2022/01/30 08:22:02;;;;;;;18.38;17.48;;;11.10;83.70;;;;;;4952597;28;20043;-88
2022/01/30 08:24:28;;;;;;;18.55;17.73;;;11.10;83.90;;;;;;4967093;28;20102;-88
2022/01/30 08:26:54;;;;;;;18.88;17.98;;;11.00;84.00;;;;;;4951012;29;20042;-87
2022/01/30 08:29:20;;;;;;;18.92;18.02;;;10.90;84.10;;;;;;4955539;29;20478;-85
2022/01/30 08:31:47;;;;;;;18.70;17.80;;;10.90;84.20;;;;;;4936246;29;20056;-87
2022/01/30 08:34:13;;;;;;;19.17;18.27;;;10.90;84.30;;;;;;4952236;28;20541;-86
2022/01/30 08:36:39;;;;;;;19.33;18.42;;;10.90;84.30;;;;;;4952595;29;20031;-89
2022/01/30 08:39:05;;;;;;;19.45;18.55;;;10.80;84.30;;;;;;4952363;29;20035;-89
2022/01/30 08:41:31;;;;;;;18.65;17.75;;;10.80;84.30;;;;;;4953971;29;20038;-87
2022/01/30 08:43:57;;;;;;;18.33;17.42;;;10.80;84.20;;;;;;4951703;29;20042;-91
2022/01/30 08:46:23;;;;;;;18.95;17.90;;;10.80;84.30;;;;;;4953703;28;20381;-90
2022/01/30 08:48:49;;;;;;;18.83;17.92;;;10.80;84.30;;;;;;4953358;28;20047;-88
2022/01/30 08:51:15;;;;;;;18.83;17.92;;;10.70;84.30;;;;;;4952660;29;20070;-86
2022/01/30 08:53:41;;;;;;;18.90;18.00;;;10.70;84.30;;;;;;4954813;28;20031;-86
2022/01/30 08:56:07;;;;;;;18.70;17.80;;;10.70;84.30;;;;;;4954767;29;20031;-89
2022/01/30 08:58:34;;;;;;;18.63;17.73;;;10.80;84.40;;;;;;4951972;29;20108;-89
2022/01/30 09:01:00;;;;;;;18.95;18.05;;;10.80;84.40;;;;;;4952137;28;20032;-89
2022/01/30 09:03:26;;;;;;;19.48;18.50;;;10.80;84.30;;;;;;4953316;29;20039;-88
2022/01/30 09:05:52;;;;;;;18.40;17.60;;;10.80;84.20;;;;;;4950958;29;20404;-88
2022/01/30 09:08:18;;;;;;;18.95;18.05;;;10.80;84.20;;;;;;4969890;28;20043;-87
2022/01/30 09:10:45;;;;;;;18.80;17.92;;;10.90;84.30;;;;;;4950527;28;20128;-87
2022/01/30 09:13:11;;;;;;;19.10;18.20;;;10.90;84.30;;;;;;4951238;29;20051;-86
2022/01/30 09:15:42;;;;;;;18.30;17.50;;;10.90;84.20;;;;;;4951387;28;20047;-85
2022/01/30 09:18:09;;;;;;;19.33;18.42;;;10.90;84.20;;;;;;4950335;28;20039;-88
2022/01/30 09:20:40;;;;;;;20.05;19.05;;;10.90;84.20;;;;;;4953599;29;20043;-88
2022/01/30 09:23:06;;;;;;;19.05;18.15;;;10.90;84.10;;;;;;4941181;29;20024;-88
2022/01/30 09:25:32;;;;;;;18.75;17.85;;;10.90;84.00;;;;;;4950346;29;20047;-88
2022/01/30 09:27:58;;;;;;;19.52;18.63;;;10.90;84.00;;;;;;4950124;29;20390;-89
2022/01/30 09:30:24;;;;;;;19.13;18.23;;;10.90;84.10;;;;;;4965730;28;20042;-88
2022/01/30 09:32:52;;;;;;;19.25;18.35;;;10.90;84.10;;;;;;4941689;29;20430;-89
2022/01/30 09:35:18;;;;;;;19.50;18.60;;;10.90;84.10;;;;;;4953426;29;20039;-89
2022/01/30 09:37:44;;;;;;;18.60;17.75;;;11.00;84.10;;;;;;4943932;29;20043;-88
2022/01/30 09:40:10;;;;;;;18.67;17.77;;;11.00;84.10;;;;;;4962043;28;20034;-90
2022/01/30 09:42:37;;;;;;;19.90;18.95;;;11.00;84.10;;;;;;4950390;29;20038;-89
2022/01/30 09:45:04;;;;;;;20.23;19.23;;;11.10;84.10;;;;;;4938890;28;20039;-90
2022/01/30 09:47:30;;;;;;;19.63;18.73;;;11.10;84.00;;;;;;4953656;28;20031;-90
2022/01/30 09:49:57;;;;;;;19.15;18.25;;;11.10;84.00;;;;;;4935714;29;20035;-90
2022/01/30 09:52:23;;;;;;;20.33;19.33;;;11.10;84.00;;;;;;4947391;28;20043;-89
2022/01/30 09:54:49;;;;;;;19.02;18.13;;;11.10;83.90;;;;;;4964962;28;20038;-89
2022/01/30 09:57:15;;;;;;;19.58;18.67;;;11.20;84.00;;;;;;4952120;29;20058;-85
2022/01/30 09:59:41;;;;;;;19.25;18.35;;;11.20;84.00;;;;;;4929241;29;20050;-85
2022/01/30 10:02:08;;;;;;;19.85;18.85;;;11.10;83.80;;;;;;4950976;28;20050;-90
2022/01/30 10:04:34;;;;;;;19.13;18.23;;;11.20;83.90;;;;;;4950713;28;20047;-91
2022/01/30 10:07:06;;;;;;;19.65;18.70;;;11.20;83.90;;;;;;4948645;29;20050;-89
2022/01/30 10:09:35;;;;;;;19.65;18.55;;;11.20;83.90;;;;;;4948817;29;20500;-88
2022/01/30 10:12:16;;;;;;;18.92;18.02;;;11.20;83.80;;;;;;4948418;29;20051;-87
2022/01/30 10:15:08;;;;;;;20.30;19.40;;;11.20;83.80;;;;;;4951273;29;20016;-88
2022/01/30 10:17:54;;;;;;;19.80;18.90;;;11.10;83.80;;;;;;4952909;28;20041;-89
2022/01/30 10:20:22;;;;;;;18.27;17.48;;;11.10;84.00;;;;;;4942162;28;20046;-90
2022/01/30 10:22:57;;;;;;;19.58;18.67;;;11.10;84.00;;;;;;4946455;28;20027;-90
2022/01/30 10:25:35;;;;;;;20.77;19.67;;;11.00;84.00;;;;;;4951209;29;20494;-88
2022/01/30 10:28:06;;;;;;;20.45;19.38;;;11.00;84.10;;;;;;4932491;29;20058;-90
2022/01/30 10:30:48;;;;;;;21.10;19.77;;;11.00;84.10;;;;;;4938190;28;20039;-90
2022/01/30 10:33:16;;;;;;;21.02;19.55;;;11.00;84.10;;;;;;4946863;29;20089;-88
2022/01/30 10:36:00;;;;;;;19.98;18.33;;;11.00;84.00;;;;;;4966346;28;20038;-88
2022/01/30 10:38:37;;;;;;;19.70;18.70;;;11.00;84.10;;;;;;4949049;29;20031;-89
2022/01/30 10:41:14;;;;;;;20.67;19.45;;;11.00;84.10;;;;;;4966375;28;20039;-90
2022/01/30 10:43:56;;;;;;;19.13;18.23;;;11.00;84.10;;;;;;4949943;29;20394;-91
2022/01/30 10:46:28;;;;;;;19.38;18.38;;;11.00;84.20;;;;;;4951616;28;20055;-89
2022/01/30 10:49:02;;;;;;;19.38;18.48;;;11.10;84.20;;;;;;4950729;29;20028;-90
2022/01/30 10:51:30;;;;;;;19.55;18.58;;;11.10;84.00;;;;;;4951669;28;20051;-87
2022/01/30 10:54:09;;;;;;;18.02;17.17;;;11.10;84.00;;;;;;4950384;29;20023;-90
2022/01/30 10:56:36;;;;;;;18.83;17.92;;;11.30;84.10;;;;;;4951752;29;20031;-91
2022/01/30 10:59:11;;;;;;;19.42;18.27;;;11.40;84.00;;;;;;4950706;29;20027;-91
2022/01/30 11:01:45;;;;;;;19.23;18.33;;;11.60;83.80;;;;;;4949173;28;20040;-88
2022/01/30 11:04:28;;;;;;;19.75;18.55;;;11.70;83.40;;;;;;4949079;28;20027;-88
2022/01/30 11:06:54;;;;;;;20.52;19.52;;;11.90;83.20;;;;;;4944641;29;20031;-84
2022/01/30 11:09:27;;;;;;;20.55;19.55;;;12.00;83.10;;;;;;4948786;29;20498;-83
2022/01/30 11:11:59;;;;;;;19.88;18.98;;;12.10;83.00;;;;;;4944483;29;20405;-86
2022/01/30 11:14:37;;;;;;;21.35;20.35;;;12.20;83.00;;;;;;4951653;29;20054;-86
2022/01/30 11:17:04;;;;;;;21.00;20.00;;;12.20;82.90;;;;;;4951206;28;20035;-88
2022/01/30 11:19:32;;;;;;;20.60;19.60;;;12.20;82.80;;;;;;4965132;28;20032;-88
2022/01/30 11:22:19;;;;;;;20.08;19.17;;;12.10;82.90;;;;;;4943017;28;20074;-86
2022/01/30 11:25:05;;;;;;;21.05;20.05;;;12.10;83.00;;;;;;4944248;29;20371;-89
2022/01/30 11:27:33;;;;;;;21.35;20.35;;;12.10;83.20;;;;;;4948554;29;20039;-85
2022/01/30 11:30:00;;;;;;;21.40;20.40;;;12.10;83.30;;;;;;4952466;29;20031;-89
2022/01/30 11:32:27;;;;;;;20.30;19.40;;;12.20;83.30;;;;;;4934389;28;20051;-84
2022/01/30 11:34:56;;;;;;;22.60;21.58;;;12.30;83.20;;;;;;4938660;29;20457;-84
2022/01/30 11:37:27;;;;;;;22.58;21.58;;;12.50;83.00;;;;;;4946155;29;20055;-88
2022/01/30 11:39:53;;;;;;;21.08;20.08;;;12.70;83.40;;;;;;4965751;28;20762;-90
2022/01/30 11:42:27;;;;;;;516.17;265.42;;;12.70;82.30;;;;;;4960094;28;20151;-88
2022/01/30 11:45:00;;;;;;;1999.90;999.90;;;12.70;82.90;;;;;;4965219;28;20111;-87
2022/01/30 11:47:26;;;;;;;1999.90;999.90;;;12.70;82.20;;;;;;4957174;28;20039;-86
2022/01/30 11:50:01;;;;;;;1999.90;999.90;;;12.60;82.30;;;;;;4953442;28;20386;-91
2022/01/30 11:52:46;;;;;;;1999.90;999.90;;;12.60;82.50;;;;;;4953191;29;20047;-89
2022/01/30 11:55:50;;;;;;;1999.90;999.90;;;12.50;82.60;;;;;;4956108;29;20034;-91
2022/01/30 11:58:38;;;;;;;19.80;18.90;;;12.50;82.60;;;;;;4970433;28;20019;-92
2022/01/30 12:01:26;;;;;;;21.13;20.13;;;12.40;82.80;;;;;;4954789;28;20038;-91
2022/01/30 12:04:02;;;;;;;21.70;20.58;;;12.50;83.00;;;;;;4955793;29;20356;-91
2022/01/30 12:06:32;;;;;;;22.38;21.25;;;12.60;82.90;;;;;;4954039;29;20035;-90
2022/01/30 12:08:59;;;;;;;22.35;21.15;;;12.80;82.80;;;;;;4955231;29;20054;-90
2022/01/30 12:11:37;;;;;;;23.08;22.00;;;13.00;82.80;;;;;;4952570;29;20039;-91
2022/01/30 12:14:07;;;;;;;22.67;21.58;;;13.20;82.40;;;;;;4956148;29;20051;-89
2022/01/30 12:16:56;;;;;;;21.80;20.80;;;13.40;82.10;;;;;;4969669;28;20044;-91
2022/01/30 12:19:31;;;;;;;21.35;20.30;;;13.50;82.80;;;;;;4954578;28;20047;-90
2022/01/30 12:22:15;;;;;;;22.80;21.75;;;13.60;81.80;;;;;;4953258;29;20027;-93
2022/01/30 12:24:42;;;;;;;20.67;19.75;;;13.70;82.00;;;;;;4951611;29;20042;-89
2022/01/30 12:27:08;;;;;;;21.55;20.55;;;13.80;81.90;;;;;;4954516;29;20046;-91
2022/01/30 12:29:47;;;;;;;21.35;20.35;;;13.80;82.00;;;;;;4945122;29;20379;-92
2022/01/30 12:32:20;;;;;;;22.75;21.67;;;13.90;82.10;;;;;;4946444;28;20534;-92
2022/01/30 12:34:50;;;;;;;1505.68;755.40;;;13.90;81.90;;;;;;4954351;29;20496;-91
2022/01/30 12:37:19;;;;;;;24.63;23.52;;;13.90;82.10;;;;;;4966572;28;20039;-91
2022/01/30 12:39:45;;;;;;;1013.47;512.85;;;13.90;82.10;;;;;;4955639;29;20382;-92
2022/01/30 12:42:15;;;;;;;1014.03;513.38;;;14.00;82.20;;;;;;4953245;29;20367;-92
2022/01/30 12:44:41;;;;;;;1999.90;999.90;;;13.90;82.10;;;;;;4938358;29;20047;-91
2022/01/30 12:47:07;;;;;;;1999.90;999.90;;;13.90;82.20;;;;;;4954008;28;20042;-91
2022/01/30 12:49:41;;;;;;;1999.90;999.90;;;13.90;82.20;;;;;;4970129;28;20502;-91
2022/01/30 12:52:10;;;;;;;1999.90;999.90;;;13.90;82.30;;;;;;4954082;29;20047;-92
2022/01/30 12:54:39;;;;;;;1999.90;999.90;;;13.90;82.30;;;;;;4951637;29;20038;-91
2022/01/30 12:57:06;;;;;;;1999.90;999.90;;;13.90;82.30;;;;;;4954241;29;20034;-90
2022/01/30 12:59:32;;;;;;;1999.90;999.90;;;13.80;82.20;;;;;;4954074;29;20039;-91
2022/01/30 13:02:05;;;;;;;1999.90;999.90;;;13.80;82.30;;;;;;4954167;28;20047;-91
2022/01/30 13:04:31;;;;;;;1999.90;999.90;;;13.80;82.20;;;;;;4940847;29;20044;-90
2022/01/30 13:06:57;;;;;;;1999.90;999.90;;;13.80;82.30;;;;;;4959219;28;20055;-91
2022/01/30 13:09:25;;;;;;;1999.90;999.90;;;13.80;82.40;;;;;;4967846;28;20027;-91
2022/01/30 13:11:55;;;;;;;1999.90;999.90;;;13.80;82.40;;;;;;4921768;29;20047;-92
2022/01/30 13:14:22;;;;;;;1999.90;999.90;;;13.80;82.30;;;;;;4951131;29;20023;-91
2022/01/30 13:16:51;;;;;;;1999.90;999.90;;;13.80;82.20;;;;;;4953066;28;20043;-91
2022/01/30 13:19:33;;;;;;;1999.90;999.90;;;13.70;82.20;;;;;;4963480;28;20068;-92
2022/01/30 13:22:01;;;;;;;1999.90;999.90;;;13.70;82.30;;;;;;4963355;28;20131;-93